createdAt,value
2018-11-30T00:00:32.308Z,1.73
2018-11-30T00:01:32.320Z,1.7
2018-11-30T00:02:32.335Z,1.84
2018-11-30T00:04:32.358Z,1.8
2018-11-30T00:05:32.377Z,1.88
2018-11-30T00:06:32.381Z,1.88
2018-11-30T00:07:47.053Z,1.86
2018-11-30T00:08:32.414Z,1.86
2018-11-30T00:09:32.426Z,1.93
2018-11-30T00:10:32.437Z,1.91
2018-11-30T00:11:32.444Z,1.98
2018-11-30T00:12:32.453Z,1.9
2018-11-30T00:13:47.125Z,1.93
2018-11-30T00:14:32.479Z,1.87
2018-11-30T00:15:32.488Z,2
2018-11-30T00:16:32.631Z,1.9
2018-11-30T00:17:32.515Z,1.8
2018-11-30T00:18:32.527Z,1.76
2018-11-30T00:19:32.540Z,1.88
2018-11-30T00:20:32.552Z,1.83
2018-11-30T00:21:32.564Z,1.88
2018-11-30T00:22:32.574Z,1.77
2018-11-30T00:23:32.591Z,1.87
2018-11-30T00:24:32.598Z,1.8
2018-11-30T00:25:32.621Z,1.8
2018-11-30T00:26:32.624Z,1.72
2018-11-30T00:27:32.638Z,1.72
2018-11-30T00:28:32.652Z,1.72
2018-11-30T00:29:47.321Z,1.73
2018-11-30T00:30:32.677Z,1.79
2018-11-30T00:31:32.686Z,1.87
2018-11-30T00:32:32.701Z,1.84
2018-11-30T00:33:32.708Z,1.8
2018-11-30T00:34:32.724Z,1.77
2018-11-30T00:37:32.757Z,1.8
2018-11-30T00:38:32.772Z,1.83
2018-11-30T00:39:32.785Z,1.88
2018-11-30T00:40:32.794Z,1.86
2018-11-30T00:41:47.467Z,1.77
2018-11-30T00:42:32.864Z,1.84
2018-11-30T00:43:32.833Z,1.83
2018-11-30T00:44:47.510Z,1.81
2018-11-30T00:45:32.859Z,1.8
2018-11-30T00:46:32.869Z,1.9
2018-11-30T00:47:32.885Z,1.83
2018-11-30T00:48:32.895Z,1.87
2018-11-30T00:49:32.906Z,1.87
2018-11-30T00:50:33.139Z,1.91
2018-11-30T00:51:32.932Z,1.91
2018-11-30T00:52:32.945Z,1.86
2018-11-30T00:53:32.960Z,1.9
2018-11-30T00:54:32.966Z,1.9
2018-11-30T00:55:47.641Z,1.8
2018-11-30T00:56:32.991Z,1.8
2018-11-30T00:57:47.667Z,1.76
2018-11-30T00:58:33.022Z,1.86
2018-11-30T00:59:33.034Z,1.79
2018-11-30T01:00:33.047Z,1.87
2018-11-30T01:01:33.055Z,1.86
2018-11-30T01:02:33.065Z,1.95
2018-11-30T01:03:33.081Z,2.02
2018-11-30T01:04:33.090Z,1.99
2018-11-30T01:05:33.101Z,2.03
2018-11-30T01:06:33.116Z,1.84
2018-11-30T01:07:33.127Z,1.91
2018-11-30T01:08:33.145Z,1.88
2018-11-30T01:09:47.815Z,1.87
2018-11-30T01:10:33.182Z,1.86
2018-11-30T01:11:33.174Z,1.84
2018-11-30T01:12:47.848Z,1.81
2018-11-30T01:13:33.200Z,1.84
2018-11-30T01:14:33.216Z,2.05
2018-11-30T01:15:33.230Z,2.06
2018-11-30T01:16:47.898Z,2.05
2018-11-30T01:17:33.253Z,1.98
2018-11-30T01:18:33.266Z,2.02
2018-11-30T01:19:33.274Z,2.09
2018-11-30T01:20:33.283Z,2.02
2018-11-30T01:22:33.312Z,2
2018-11-30T01:25:33.352Z,2.06
2018-11-30T01:26:33.358Z,1.99
2018-11-30T01:27:33.373Z,2
2018-11-30T01:28:33.436Z,2.14
2018-11-30T01:29:33.400Z,2.1
2018-11-30T01:30:33.412Z,2.18
2018-11-30T01:31:33.420Z,2.03
2018-11-30T01:32:48.107Z,2.07
2018-11-30T01:33:33.444Z,2.14
2018-11-30T01:34:33.458Z,2.1
2018-11-30T01:35:33.473Z,2.06
2018-11-30T01:36:33.482Z,2.09
2018-11-30T01:37:33.499Z,2.06
2018-11-30T01:38:48.173Z,2.12
2018-11-30T01:40:33.532Z,2.07
2018-11-30T01:41:33.548Z,2.12
2018-11-30T01:42:48.217Z,2.16
2018-11-30T01:43:48.229Z,2.12
2018-11-30T01:44:48.242Z,2.09
2018-11-30T01:45:33.593Z,2.2
2018-11-30T01:46:33.606Z,2.23
2018-11-30T01:47:33.618Z,2.1
2018-11-30T01:48:48.291Z,2.17
2018-11-30T01:49:33.642Z,2.1
2018-11-30T01:50:33.655Z,2.03
2018-11-30T01:52:33.696Z,2.16
2018-11-30T01:53:33.701Z,2.12
2018-11-30T01:54:33.707Z,2.12
2018-11-30T01:56:33.740Z,2.12
2018-11-30T01:57:33.744Z,2.16
2018-11-30T01:58:33.759Z,2.25
2018-11-30T01:59:33.764Z,2.18
2018-11-30T02:00:33.779Z,2.24
2018-11-30T02:01:33.789Z,2.25
2018-11-30T02:02:33.807Z,2.21
2018-11-30T02:03:33.812Z,2.24
2018-11-30T02:04:48.490Z,2.1
2018-11-30T02:05:33.842Z,2.2
2018-11-30T02:06:33.855Z,2.23
2018-11-30T02:07:33.863Z,2.18
2018-11-30T02:08:33.877Z,2.2
2018-11-30T02:12:33.937Z,2.3
2018-11-30T02:13:33.937Z,2.27
2018-11-30T02:14:33.950Z,2.12
2018-11-30T02:15:33.964Z,2.2
2018-11-30T02:16:48.634Z,2.17
2018-11-30T02:17:33.986Z,2.16
2018-11-30T02:18:34.002Z,2.21
2018-11-30T02:20:34.025Z,2.2
2018-11-30T02:21:34.041Z,2.24
2018-11-30T02:22:34.049Z,2.25
2018-11-30T02:23:34.071Z,2.28
2018-11-30T02:24:34.074Z,2.17
2018-11-30T02:25:33.847Z,2.23
2018-11-30T02:26:34.102Z,2.18
2018-11-30T02:27:34.112Z,2.2
2018-11-30T02:28:34.124Z,2.38
2018-11-30T02:29:34.136Z,2.35
2018-11-30T02:30:34.156Z,2.36
2018-11-30T02:31:34.166Z,2.21
2018-11-30T02:32:34.177Z,2.23
2018-11-30T02:33:34.191Z,2.21
2018-11-30T02:34:34.199Z,2.36
2018-11-30T02:35:34.227Z,2.3
2018-11-30T02:36:34.228Z,2.31
2018-11-30T02:37:34.238Z,2.35
2018-11-30T02:38:34.274Z,2.21
2018-11-30T02:39:34.257Z,2.3
2018-11-30T02:40:34.286Z,2.36
2018-11-30T02:42:34.305Z,2.38
2018-11-30T02:43:34.318Z,2.45
2018-11-30T02:44:34.321Z,2.36
2018-11-30T02:45:48.997Z,2.35
2018-11-30T02:46:34.368Z,2.38
2018-11-30T02:47:34.369Z,2.45
2018-11-30T02:48:34.373Z,2.39
2018-11-30T02:49:34.388Z,2.52
2018-11-30T02:50:34.403Z,2.49
2018-11-30T02:51:49.116Z,2.45
2018-11-30T02:52:34.423Z,2.46
2018-11-30T02:53:34.435Z,2.52
2018-11-30T02:54:34.454Z,2.49
2018-11-30T02:56:34.476Z,2.56
2018-11-30T02:57:34.485Z,2.6
2018-11-30T02:58:34.498Z,2.56
2018-11-30T02:59:34.515Z,2.46
2018-11-30T03:00:34.526Z,2.36
2018-11-30T03:01:34.534Z,2.39
2018-11-30T03:02:34.546Z,2.43
2018-11-30T03:03:34.556Z,2.38
2018-11-30T03:04:34.584Z,2.41
2018-11-30T03:05:34.586Z,2.41
2018-11-30T03:06:34.595Z,2.35
2018-11-30T03:07:49.322Z,2.53
2018-11-30T03:08:34.386Z,2.48
2018-11-30T03:09:34.633Z,2.41
2018-11-30T03:10:34.648Z,2.36
2018-11-30T03:11:34.663Z,2.34
2018-11-30T03:12:34.671Z,2.34
2018-11-30T03:13:34.685Z,2.38
2018-11-30T03:14:34.697Z,2.42
2018-11-30T03:16:34.721Z,2.45
2018-11-30T03:17:34.733Z,2.36
2018-11-30T03:18:34.747Z,2.42
2018-11-30T03:19:34.782Z,2.36
2018-11-30T03:20:34.770Z,2.42
2018-11-30T03:21:34.788Z,2.39
2018-11-30T03:22:34.794Z,2.43
2018-11-30T03:23:49.467Z,2.38
2018-11-30T03:24:34.819Z,2.35
2018-11-30T03:25:34.836Z,2.38
2018-11-30T03:26:49.516Z,2.34
2018-11-30T03:27:34.857Z,2.39
2018-11-30T03:28:34.874Z,2.27
2018-11-30T03:29:34.882Z,2.43
2018-11-30T03:30:34.940Z,2.41
2018-11-30T03:31:49.572Z,2.45
2018-11-30T03:32:34.930Z,2.38
2018-11-30T03:33:34.968Z,2.38
2018-11-30T03:34:34.964Z,2.43
2018-11-30T03:35:34.960Z,2.41
2018-11-30T03:36:34.975Z,2.48
2018-11-30T03:37:34.998Z,2.43
2018-11-30T03:38:34.996Z,2.52
2018-11-30T03:41:35.033Z,2.45
2018-11-30T03:42:35.042Z,2.52
2018-11-30T03:43:35.061Z,2.45
2018-11-30T03:44:35.076Z,2.46
2018-11-30T03:45:34.843Z,2.49
2018-11-30T03:46:35.098Z,2.48
2018-11-30T03:47:49.776Z,2.48
2018-11-30T03:48:35.119Z,2.52
2018-11-30T03:49:49.795Z,2.48
2018-11-30T03:50:35.157Z,2.35
2018-11-30T03:51:49.816Z,2.36
2018-11-30T03:52:35.173Z,2.41
2018-11-30T03:53:35.181Z,2.41
2018-11-30T03:54:49.856Z,2.27
2018-11-30T03:55:35.220Z,2.39
2018-11-30T03:56:35.250Z,2.34
2018-11-30T03:57:35.231Z,2.39
2018-11-30T03:58:35.244Z,2.52
2018-11-30T03:59:35.266Z,2.46
2018-11-30T04:00:35.270Z,2.38
2018-11-30T04:01:35.283Z,2.41
2018-11-30T04:02:35.326Z,2.35
2018-11-30T04:03:35.303Z,2.42
2018-11-30T04:04:35.318Z,2.42
2018-11-30T04:05:35.351Z,2.46
2018-11-30T04:06:35.361Z,2.35
2018-11-30T04:07:35.358Z,2.39
2018-11-30T04:08:35.379Z,2.42
2018-11-30T04:09:35.388Z,2.36
2018-11-30T04:10:35.396Z,2.31
2018-11-30T04:11:35.406Z,2.41
2018-11-30T04:12:35.444Z,2.41
2018-11-30T04:13:35.431Z,2.39
2018-11-30T04:15:35.466Z,2.36
2018-11-30T04:16:35.468Z,2.35
2018-11-30T04:17:35.482Z,2.43
2018-11-30T04:18:35.509Z,2.34
2018-11-30T04:19:35.510Z,2.46
2018-11-30T04:20:35.546Z,2.49
2018-11-30T04:21:35.288Z,2.35
2018-11-30T04:22:50.202Z,2.45
2018-11-30T04:23:35.567Z,2.35
2018-11-30T04:24:35.571Z,2.49
2018-11-30T04:25:35.595Z,2.45
2018-11-30T04:26:50.254Z,2.39
2018-11-30T04:27:35.615Z,2.36
2018-11-30T04:28:35.619Z,2.27
2018-11-30T04:29:35.628Z,2.43
2018-11-30T04:30:35.643Z,2.36
2018-11-30T04:31:41.405Z,2.43
2018-11-30T04:32:35.671Z,2.31
2018-11-30T04:33:35.688Z,2.3
2018-11-30T04:35:35.711Z,2.35
2018-11-30T04:36:35.715Z,2.39
2018-11-30T04:37:42.191Z,2.34
2018-11-30T04:38:35.745Z,2.36
2018-11-30T04:39:35.757Z,2.35
2018-11-30T04:40:35.767Z,2.36
2018-11-30T04:41:35.787Z,2.36
2018-11-30T04:42:50.453Z,2.36
2018-11-30T04:43:35.560Z,2.38
2018-11-30T04:44:35.825Z,2.3
2018-11-30T04:45:35.838Z,2.27
2018-11-30T04:46:35.850Z,2.28
2018-11-30T04:47:35.858Z,2.28
2018-11-30T04:48:35.871Z,2.27
2018-11-30T04:49:50.549Z,2.24
2018-11-30T04:50:35.895Z,2.27
2018-11-30T04:51:35.903Z,2.35
2018-11-30T04:52:50.578Z,2.34
2018-11-30T04:53:50.591Z,2.38
2018-11-30T04:54:35.944Z,2.36
2018-11-30T04:55:50.615Z,2.34
2018-11-30T04:56:50.642Z,2.41
2018-11-30T04:57:35.984Z,2.39
2018-11-30T04:58:50.652Z,2.34
2018-11-30T04:59:36.003Z,2.36
2018-11-30T05:00:36.032Z,2.36
2018-11-30T05:02:36.049Z,2.31
2018-11-30T05:04:36.068Z,2.38
2018-11-30T05:05:36.080Z,2.41
2018-11-30T05:06:36.098Z,2.39
2018-11-30T05:07:36.110Z,2.41
2018-11-30T05:08:36.136Z,2.41
2018-11-30T05:09:36.135Z,2.41
2018-11-30T05:10:35.910Z,2.45
2018-11-30T05:11:36.153Z,2.28
2018-11-30T05:12:36.174Z,2.34
2018-11-30T05:13:36.180Z,2.28
2018-11-30T05:14:50.852Z,2.3
2018-11-30T05:15:36.207Z,2.31
2018-11-30T05:16:36.215Z,2.35
2018-11-30T05:17:36.228Z,2.34
2018-11-30T05:19:36.258Z,2.3
2018-11-30T05:20:36.272Z,2.43
2018-11-30T05:21:36.278Z,2.31
2018-11-30T05:23:36.302Z,2.31
2018-11-30T05:24:36.318Z,2.31
2018-11-30T05:25:55.589Z,2.28
2018-11-30T05:26:36.343Z,2.25
2018-11-30T05:27:36.355Z,2.34
2018-11-30T05:28:36.369Z,2.39
2018-11-30T05:29:51.041Z,2.31
2018-11-30T05:30:36.394Z,2.34
2018-11-30T05:31:36.409Z,2.35
2018-11-30T05:32:36.417Z,2.46
2018-11-30T05:33:36.439Z,2.36
2018-11-30T05:35:36.459Z,2.27
2018-11-30T05:36:36.480Z,2.23
2018-11-30T05:37:36.482Z,2.27
2018-11-30T05:38:36.498Z,2.3
2018-11-30T05:39:36.508Z,2.24
2018-11-30T05:40:51.181Z,2.3
2018-11-30T05:41:36.533Z,2.3
2018-11-30T05:42:36.543Z,2.35
2018-11-30T05:43:36.560Z,2.2
2018-11-30T05:44:36.565Z,2.35
2018-11-30T05:45:36.580Z,2.24
2018-11-30T05:46:36.594Z,2.21
2018-11-30T05:47:36.612Z,2.12
2018-11-30T05:48:36.616Z,2.1
2018-11-30T05:49:36.632Z,2.21
2018-11-30T05:50:36.641Z,2.18
2018-11-30T05:52:36.667Z,2.02
2018-11-30T05:53:36.679Z,2.1
2018-11-30T05:54:51.355Z,2.06
2018-11-30T05:55:36.710Z,1.99
2018-11-30T05:56:36.715Z,2.1
2018-11-30T05:57:36.728Z,2.09
2018-11-30T05:58:36.739Z,2.1
2018-11-30T05:59:36.757Z,2.12
2018-11-30T06:00:36.771Z,2.1
2018-11-30T06:01:51.440Z,2.09
2018-11-30T06:02:36.792Z,2.23
2018-11-30T06:03:36.805Z,2.23
2018-11-30T06:04:36.814Z,2.24
2018-11-30T06:05:36.831Z,2.25
2018-11-30T06:06:36.842Z,2.28
2018-11-30T06:08:36.867Z,2.31
2018-11-30T06:09:36.877Z,2.23
2018-11-30T06:10:36.892Z,2.3
2018-11-30T06:11:51.565Z,2.28
2018-11-30T06:12:36.918Z,2.25
2018-11-30T06:13:36.928Z,2.3
2018-11-30T06:14:36.951Z,2.25
2018-11-30T06:15:36.952Z,2.25
2018-11-30T06:16:37.016Z,2.23
2018-11-30T06:17:51.643Z,2.3
2018-11-30T06:18:36.987Z,2.28
2018-11-30T06:19:37.003Z,2.23
2018-11-30T06:20:37.012Z,2.31
2018-11-30T06:21:37.032Z,2.34
2018-11-30T06:22:37.035Z,2.27
2018-11-30T06:23:37.054Z,2.24
2018-11-30T06:24:37.066Z,2.27
2018-11-30T06:25:37.088Z,2.31
2018-11-30T06:26:37.100Z,2.39
2018-11-30T06:27:37.105Z,2.34
2018-11-30T06:28:51.775Z,2.31
2018-11-30T06:29:38.247Z,2.36
2018-11-30T06:30:37.139Z,2.31
2018-11-30T06:31:37.226Z,2.31
2018-11-30T06:32:37.165Z,2.43
2018-11-30T06:33:51.838Z,2.41
2018-11-30T06:34:37.187Z,2.3
2018-11-30T06:35:37.199Z,2.28
2018-11-30T06:36:36.974Z,2.36
2018-11-30T06:37:37.231Z,2.27
2018-11-30T06:39:37.254Z,2.39
2018-11-30T06:40:37.362Z,2.35
2018-11-30T06:41:51.940Z,2.45
2018-11-30T06:43:37.302Z,2.41
2018-11-30T06:44:37.312Z,2.34
2018-11-30T06:46:37.339Z,2.43
2018-11-30T06:47:37.349Z,2.45
2018-11-30T06:48:37.367Z,2.38
2018-11-30T06:49:52.036Z,2.39
2018-11-30T06:50:37.398Z,2.31
2018-11-30T06:51:37.404Z,2.34
2018-11-30T06:52:37.415Z,2.31
2018-11-30T06:53:37.438Z,2.42
2018-11-30T06:54:37.443Z,2.42
2018-11-30T06:55:37.553Z,2.42
2018-11-30T06:57:52.138Z,2.38
2018-11-30T06:58:37.538Z,2.35
2018-11-30T06:59:52.162Z,2.41
2018-11-30T07:00:52.174Z,2.34
2018-11-30T07:01:52.187Z,2.36
2018-11-30T07:02:37.540Z,2.45
2018-11-30T07:04:52.225Z,2.6
2018-11-30T07:05:37.584Z,2.52
2018-11-30T07:06:37.591Z,2.61
2018-11-30T07:07:37.602Z,2.6
2018-11-30T07:08:37.619Z,2.6
2018-11-30T07:09:37.637Z,2.52
2018-11-30T07:10:37.637Z,2.53
2018-11-30T07:11:37.654Z,2.54
2018-11-30T07:12:37.667Z,2.56
2018-11-30T07:13:52.339Z,2.56
2018-11-30T07:14:37.687Z,2.59
2018-11-30T07:15:37.702Z,2.57
2018-11-30T07:16:52.390Z,2.56
2018-11-30T07:17:37.745Z,2.46
2018-11-30T07:18:37.796Z,2.64
2018-11-30T07:19:37.784Z,2.57
2018-11-30T07:20:37.862Z,2.56
2018-11-30T07:21:37.830Z,2.48
2018-11-30T07:22:52.491Z,2.57
2018-11-30T07:23:37.865Z,2.56
2018-11-30T07:24:37.840Z,2.52
2018-11-30T07:25:37.859Z,2.52
2018-11-30T07:26:37.621Z,2.52
2018-11-30T07:27:37.874Z,2.64
2018-11-30T07:28:37.888Z,2.54
2018-11-30T07:29:37.895Z,2.53
2018-11-30T07:30:37.914Z,2.6
2018-11-30T07:31:38.344Z,2.59
2018-11-30T07:32:37.950Z,2.61
2018-11-30T07:33:37.960Z,2.52
2018-11-30T07:34:37.959Z,2.48
2018-11-30T07:35:37.986Z,2.59
2018-11-30T07:36:52.639Z,2.57
2018-11-30T07:38:38.016Z,2.61
2018-11-30T07:39:38.018Z,2.48
2018-11-30T07:40:38.039Z,2.53
2018-11-30T07:41:38.315Z,2.59
2018-11-30T07:42:38.068Z,2.66
2018-11-30T07:43:38.079Z,2.71
2018-11-30T07:44:38.095Z,2.67
2018-11-30T07:45:38.096Z,2.79
2018-11-30T07:46:38.107Z,2.74
2018-11-30T07:47:38.114Z,2.72
2018-11-30T07:48:38.133Z,2.79
2018-11-30T07:49:38.142Z,2.71
2018-11-30T07:50:38.156Z,2.69
2018-11-30T07:51:38.710Z,2.66
2018-11-30T07:52:52.837Z,2.64
2018-11-30T07:53:38.188Z,2.67
2018-11-30T07:54:38.198Z,2.63
2018-11-30T07:55:38.220Z,2.78
2018-11-30T07:56:38.260Z,2.64
2018-11-30T07:57:38.237Z,2.69
2018-11-30T07:58:52.910Z,2.67
2018-11-30T07:59:38.271Z,2.66
2018-11-30T08:00:38.289Z,2.82
2018-11-30T08:01:38.622Z,2.71
2018-11-30T08:02:38.303Z,2.72
2018-11-30T08:03:38.324Z,2.71
2018-11-30T08:04:38.338Z,2.81
2018-11-30T08:05:38.344Z,2.69
2018-11-30T08:06:38.358Z,2.78
2018-11-30T08:07:38.484Z,2.74
2018-11-30T08:08:53.040Z,2.84
2018-11-30T08:09:38.394Z,2.75
2018-11-30T08:10:38.410Z,2.82
2018-11-30T08:11:38.652Z,2.93
2018-11-30T08:12:38.426Z,2.85
2018-11-30T08:13:38.447Z,2.79
2018-11-30T08:14:38.453Z,2.72
2018-11-30T08:16:38.484Z,2.85
2018-11-30T08:18:38.515Z,2.96
2018-11-30T08:19:38.519Z,2.97
2018-11-30T08:20:38.533Z,2.93
2018-11-30T08:21:38.540Z,2.97
2018-11-30T08:22:38.550Z,2.95
2018-11-30T08:23:38.575Z,2.95
2018-11-30T08:24:53.239Z,3.02
2018-11-30T08:25:38.341Z,3
2018-11-30T08:26:38.609Z,3.05
2018-11-30T08:27:38.614Z,3
2018-11-30T08:28:38.629Z,3.06
2018-11-30T08:29:38.740Z,2.99
2018-11-30T08:30:38.655Z,3.03
2018-11-30T08:31:38.673Z,3.05
2018-11-30T08:32:38.682Z,3.06
2018-11-30T08:33:38.694Z,2.99
2018-11-30T08:34:38.705Z,3.17
2018-11-30T08:35:38.718Z,3.18
2018-11-30T08:36:53.390Z,3.11
2018-11-30T08:37:38.745Z,3.1
2018-11-30T08:38:38.755Z,3.14
2018-11-30T08:39:53.430Z,3.15
2018-11-30T08:40:38.781Z,3.13
2018-11-30T08:41:38.796Z,3.15
2018-11-30T08:42:38.814Z,3.21
2018-11-30T08:43:38.820Z,3.06
2018-11-30T08:44:38.836Z,3.11
2018-11-30T08:45:38.860Z,3.11
2018-11-30T08:46:38.864Z,3.1
2018-11-30T08:47:38.875Z,3.11
2018-11-30T08:48:38.890Z,3.23
2018-11-30T08:49:38.902Z,3.15
2018-11-30T08:50:38.915Z,3.2
2018-11-30T08:51:38.928Z,3.2
2018-11-30T08:52:38.954Z,3.24
2018-11-30T08:53:38.960Z,3.2
2018-11-30T08:55:38.983Z,3.24
2018-11-30T08:56:38.999Z,3.26
2018-11-30T08:57:39.011Z,3.21
2018-11-30T08:58:39.024Z,3.2
2018-11-30T08:59:39.048Z,3.24
2018-11-30T09:00:53.715Z,3.21
2018-11-30T09:01:39.061Z,3.17
2018-11-30T09:02:39.083Z,3.24
2018-11-30T09:03:39.094Z,3.18
2018-11-30T09:04:39.098Z,3.32
2018-11-30T09:05:53.771Z,3.29
2018-11-30T09:06:39.128Z,3.28
2018-11-30T09:07:39.140Z,3.21
2018-11-30T09:08:39.149Z,3.14
2018-11-30T09:09:39.208Z,3.2
2018-11-30T09:10:39.237Z,3.31
2018-11-30T09:11:53.868Z,3.26
2018-11-30T09:12:39.202Z,3.23
2018-11-30T09:13:39.293Z,3.17
2018-11-30T09:14:39.227Z,3.15
2018-11-30T09:15:39.241Z,3.15
2018-11-30T09:16:39.257Z,3.26
2018-11-30T09:17:39.306Z,3.2
2018-11-30T09:18:39.302Z,3.2
2018-11-30T09:19:39.326Z,3.24
2018-11-30T09:20:39.306Z,3.28
2018-11-30T09:21:39.324Z,3.31
2018-11-30T09:22:39.083Z,3.32
2018-11-30T09:23:39.346Z,3.29
2018-11-30T09:24:39.357Z,3.2
2018-11-30T09:25:39.373Z,3.31
2018-11-30T09:26:39.385Z,3.33
2018-11-30T09:27:54.140Z,3.35
2018-11-30T09:28:39.414Z,3.29
2018-11-30T09:29:39.425Z,3.43
2018-11-30T09:30:39.437Z,3.55
2018-11-30T09:32:39.463Z,3.36
2018-11-30T09:33:39.480Z,3.4
2018-11-30T09:35:39.508Z,3.51
2018-11-30T09:36:39.519Z,3.52
2018-11-30T09:37:39.534Z,3.55
2018-11-30T09:38:39.543Z,3.55
2018-11-30T09:39:39.555Z,3.58
2018-11-30T09:40:39.571Z,3.55
2018-11-30T09:41:39.583Z,3.57
2018-11-30T09:42:39.620Z,3.6
2018-11-30T09:43:54.269Z,3.6
2018-11-30T09:44:39.624Z,3.57
2018-11-30T09:45:39.644Z,3.52
2018-11-30T09:46:39.652Z,3.45
2018-11-30T09:47:39.664Z,3.51
2018-11-30T09:48:39.687Z,3.47
2018-11-30T09:49:39.794Z,3.52
2018-11-30T09:50:39.455Z,3.54
2018-11-30T09:51:39.716Z,3.48
2018-11-30T09:52:39.745Z,3.51
2018-11-30T09:53:39.744Z,3.51
2018-11-30T09:54:54.416Z,3.55
2018-11-30T09:55:39.774Z,3.52
2018-11-30T09:56:39.785Z,3.51
2018-11-30T09:57:39.793Z,3.51
2018-11-30T09:58:39.808Z,3.5
2018-11-30T09:59:54.480Z,3.51
2018-11-30T10:00:39.834Z,3.57
2018-11-30T10:01:39.847Z,3.61
2018-11-30T10:02:39.857Z,3.61
2018-11-30T10:03:39.874Z,3.57
2018-11-30T10:04:39.888Z,3.6
2018-11-30T10:05:40.010Z,3.7
2018-11-30T10:07:39.928Z,3.73
2018-11-30T10:08:39.940Z,3.75
2018-11-30T10:09:54.615Z,3.76
2018-11-30T10:10:39.972Z,3.84
2018-11-30T10:11:39.979Z,3.8
2018-11-30T10:12:40.000Z,3.69
2018-11-30T10:13:40.012Z,3.75
2018-11-30T10:14:54.683Z,3.78
2018-11-30T10:15:40.034Z,3.8
2018-11-30T10:17:40.059Z,4.02
2018-11-30T10:18:40.126Z,4.02
2018-11-30T10:19:40.087Z,4
2018-11-30T10:20:40.100Z,3.91
2018-11-30T10:21:40.115Z,3.84
2018-11-30T10:22:40.129Z,3.9
2018-11-30T10:23:40.242Z,3.87
2018-11-30T10:24:54.816Z,3.8
2018-11-30T10:25:40.171Z,3.88
2018-11-30T10:26:40.182Z,3.98
2018-11-30T10:27:40.193Z,4.02
2018-11-30T10:28:40.209Z,4.04
2018-11-30T10:29:40.226Z,4.04
2018-11-30T10:30:40.239Z,3.91
2018-11-30T10:31:40.250Z,3.91
2018-11-30T10:32:40.265Z,3.86
2018-11-30T10:34:40.326Z,3.72
2018-11-30T10:35:40.301Z,3.72
2018-11-30T10:36:40.321Z,3.84
2018-11-30T10:37:40.337Z,3.69
2018-11-30T10:38:55.006Z,3.73
2018-11-30T10:39:40.363Z,3.65
2018-11-30T10:40:40.368Z,3.62
2018-11-30T10:41:40.386Z,3.6
2018-11-30T10:42:40.401Z,3.65
2018-11-30T10:43:40.459Z,3.52
2018-11-30T10:44:40.426Z,3.43
2018-11-30T10:45:40.436Z,3.54
2018-11-30T10:46:55.111Z,3.48
2018-11-30T10:47:40.461Z,3.51
2018-11-30T10:48:40.490Z,3.58
2018-11-30T10:49:40.498Z,3.47
2018-11-30T10:50:40.506Z,3.5
2018-11-30T10:51:40.516Z,3.47
2018-11-30T10:52:40.542Z,3.42
2018-11-30T10:53:40.551Z,3.5
2018-11-30T10:54:40.557Z,3.36
2018-11-30T10:55:55.232Z,3.47
2018-11-30T10:56:55.246Z,3.4
2018-11-30T10:57:40.602Z,3.5
2018-11-30T10:58:40.614Z,3.5
2018-11-30T10:59:40.625Z,3.45
2018-11-30T11:00:40.637Z,3.52
2018-11-30T11:01:40.649Z,3.62
2018-11-30T11:02:55.325Z,3.55
2018-11-30T11:03:40.677Z,3.55
2018-11-30T11:04:40.740Z,3.62
2018-11-30T11:05:40.706Z,3.54
2018-11-30T11:06:40.717Z,3.55
2018-11-30T11:08:40.750Z,3.55
2018-11-30T11:09:40.512Z,3.51
2018-11-30T11:10:40.775Z,3.47
2018-11-30T11:11:40.785Z,3.4
2018-11-30T11:12:40.798Z,3.48
2018-11-30T11:13:40.819Z,3.43
2018-11-30T11:14:40.830Z,3.4
2018-11-30T11:15:55.497Z,3.45
2018-11-30T11:16:40.855Z,3.39
2018-11-30T11:17:40.869Z,3.29
2018-11-30T11:18:55.560Z,3.36
2018-11-30T11:19:40.897Z,3.45
2018-11-30T11:20:40.900Z,3.35
2018-11-30T11:21:40.922Z,3.33
2018-11-30T11:22:40.935Z,3.42
2018-11-30T11:23:40.948Z,3.42
2018-11-30T11:24:41.008Z,3.29
2018-11-30T11:25:40.974Z,3.33
2018-11-30T11:26:40.995Z,3.33
2018-11-30T11:27:41.009Z,3.35
2018-11-30T11:28:41.018Z,3.33
2018-11-30T11:29:41.025Z,3.33
2018-11-30T11:30:41.041Z,3.31
2018-11-30T11:31:41.048Z,3.33
2018-11-30T11:32:41.079Z,3.32
2018-11-30T11:33:41.081Z,3.24
2018-11-30T11:34:55.752Z,3.18
2018-11-30T11:35:55.773Z,3.26
2018-11-30T11:36:41.339Z,3.26
2018-11-30T11:37:41.129Z,3.14
2018-11-30T11:39:41.158Z,3.1
2018-11-30T11:40:41.174Z,3.14
2018-11-30T11:41:41.197Z,3.11
2018-11-30T11:42:41.196Z,3.18
2018-11-30T11:43:41.212Z,3.08
2018-11-30T11:44:41.227Z,3.03
2018-11-30T11:45:55.903Z,3.11
2018-11-30T11:46:41.249Z,3.13
2018-11-30T11:47:41.261Z,3.18
2018-11-30T11:48:41.274Z,3.08
2018-11-30T11:49:55.951Z,3.03
2018-11-30T11:50:41.310Z,3.02
2018-11-30T11:51:41.325Z,2.93
2018-11-30T11:52:41.345Z,3.02
2018-11-30T11:53:41.403Z,3
2018-11-30T11:55:41.374Z,3.13
2018-11-30T11:56:41.380Z,2.93
2018-11-30T11:57:41.398Z,3.05
2018-11-30T11:58:41.415Z,3.05
2018-11-30T11:59:41.430Z,3.14
2018-11-30T12:00:41.439Z,3.05
2018-11-30T12:01:56.107Z,3
2018-11-30T12:02:41.462Z,3.14
2018-11-30T12:03:41.474Z,3.14
2018-11-30T12:04:41.489Z,3.1
2018-11-30T12:05:41.500Z,3.03
2018-11-30T12:06:41.751Z,3.03
2018-11-30T12:07:41.525Z,3.1
2018-11-30T12:08:41.536Z,3.15
2018-11-30T12:09:41.549Z,3.14
2018-11-30T12:10:41.562Z,3.15
2018-11-30T12:11:41.579Z,3.14
2018-11-30T12:12:41.599Z,3.18
2018-11-30T12:13:41.603Z,3.17
2018-11-30T12:14:41.642Z,3.15
2018-11-30T12:15:56.290Z,3.13
2018-11-30T12:16:41.648Z,3.21
2018-11-30T12:17:41.655Z,3.18
2018-11-30T12:18:41.674Z,3.15
2018-11-30T12:19:41.684Z,3.17
2018-11-30T12:20:41.695Z,3.2
2018-11-30T12:21:56.369Z,3.23
2018-11-30T12:22:41.725Z,3.28
2018-11-30T12:23:41.740Z,3.31
2018-11-30T12:24:41.751Z,3.32
2018-11-30T12:25:41.766Z,3.32
2018-11-30T12:26:41.804Z,3.29
2018-11-30T12:27:41.788Z,3.32
2018-11-30T12:28:41.804Z,3.21
2018-11-30T12:29:41.817Z,3.21
2018-11-30T12:30:41.830Z,3.33
2018-11-30T12:31:56.504Z,3.23
2018-11-30T12:32:41.860Z,3.32
2018-11-30T12:33:41.871Z,3.32
2018-11-30T12:34:41.885Z,3.33
2018-11-30T12:35:46.417Z,3.43
2018-11-30T12:36:41.928Z,3.32
2018-11-30T12:37:56.586Z,3.32
2018-11-30T12:38:41.936Z,3.35
2018-11-30T12:39:41.949Z,3.33
2018-11-30T12:41:41.983Z,3.36
2018-11-30T12:42:43.053Z,3.33
2018-11-30T12:43:42.004Z,3.39
2018-11-30T12:44:42.013Z,3.35
2018-11-30T12:45:42.026Z,3.31
2018-11-30T12:46:42.042Z,3.26
2018-11-30T12:47:56.717Z,3.29
2018-11-30T12:48:42.070Z,3.24
2018-11-30T12:49:42.081Z,3.26
2018-11-30T12:51:42.112Z,3.26
2018-11-30T12:53:56.797Z,3.24
2018-11-30T12:54:42.153Z,3.31
2018-11-30T12:55:42.165Z,3.29
2018-11-30T12:56:42.182Z,3.29
2018-11-30T12:57:42.187Z,3.21
2018-11-30T12:58:42.202Z,3.17
2018-11-30T12:59:42.215Z,3.24
2018-11-30T13:00:42.231Z,3.1
2018-11-30T13:01:42.243Z,3.17
2018-11-30T13:02:42.269Z,3.14
2018-11-30T13:03:42.277Z,3.18
2018-11-30T13:04:42.279Z,3.13
2018-11-30T13:05:42.298Z,3.21
2018-11-30T13:06:42.318Z,3.1
2018-11-30T13:07:47.961Z,3.23
2018-11-30T13:08:42.344Z,3.13
2018-11-30T13:09:57.027Z,3.24
2018-11-30T13:10:42.361Z,3.21
2018-11-30T13:11:42.375Z,3.11
2018-11-30T13:12:42.384Z,3.15
2018-11-30T13:13:42.403Z,3.18
2018-11-30T13:14:42.420Z,3.15
2018-11-30T13:15:42.432Z,3.15
2018-11-30T13:16:42.444Z,3.13
2018-11-30T13:17:42.454Z,3.17
2018-11-30T13:18:42.469Z,3.11
2018-11-30T13:19:42.479Z,3.11
2018-11-30T13:20:42.499Z,3.11
2018-11-30T13:21:42.521Z,3.14
2018-11-30T13:22:42.519Z,3.05
2018-11-30T13:23:42.535Z,3.15
2018-11-30T13:24:57.209Z,3.14
2018-11-30T13:25:42.565Z,3.18
2018-11-30T13:26:42.574Z,3.11
2018-11-30T13:27:42.587Z,3.17
2018-11-30T13:28:42.602Z,3.11
2018-11-30T13:29:42.613Z,3.13
2018-11-30T13:30:42.630Z,3.05
2018-11-30T13:31:42.646Z,3.08
2018-11-30T13:32:57.318Z,3.05
2018-11-30T13:33:43.429Z,3.03
2018-11-30T13:34:57.342Z,3.05
2018-11-30T13:35:42.702Z,3.03
2018-11-30T13:36:42.710Z,3
2018-11-30T13:37:42.726Z,3.03
2018-11-30T13:38:42.492Z,3.02
2018-11-30T13:39:42.750Z,3.05
2018-11-30T13:40:42.762Z,2.99
2018-11-30T13:41:42.777Z,3.02
2018-11-30T13:42:42.788Z,3.02
2018-11-30T13:43:42.801Z,3.02
2018-11-30T13:44:42.813Z,3.05
2018-11-30T13:45:42.824Z,3.02
2018-11-30T13:46:42.840Z,3.03
2018-11-30T13:47:42.853Z,2.99
2018-11-30T13:49:42.880Z,3.03
2018-11-30T13:50:42.894Z,3.1
2018-11-30T13:51:42.908Z,3.03
2018-11-30T13:52:42.919Z,3.13
2018-11-30T13:53:42.936Z,3.06
2018-11-30T13:54:42.949Z,2.99
2018-11-30T13:55:42.962Z,2.93
2018-11-30T13:56:57.636Z,2.93
2018-11-30T13:57:42.986Z,3
2018-11-30T13:58:43.000Z,2.99
2018-11-30T13:59:43.013Z,2.92
2018-11-30T14:00:43.028Z,3.02
2018-11-30T14:01:43.037Z,2.92
2018-11-30T14:02:43.051Z,2.93
2018-11-30T14:03:43.068Z,2.96
2018-11-30T14:04:43.082Z,2.85
2018-11-30T14:05:43.089Z,2.87
2018-11-30T14:06:43.108Z,2.77
2018-11-30T14:07:43.119Z,2.79
2018-11-30T14:08:43.133Z,2.74
2018-11-30T14:09:43.149Z,2.77
2018-11-30T14:10:44.999Z,2.79